sensor_id;sensor_type;location;lat;lon;timestamp;P1;durP1;ratioP1;P2;durP2;ratioP2
16177;SDS011;8195;51.220;9.746;2023-01-08T00:04:39;6.13;;;5.60;;
16177;SDS011;8195;51.220;9.746;2023-01-08T00:14:40;5.85;;;5.25;;
16177;SDS011;8195;51.220;9.746;2023-01-08T00:24:40;5.68;;;5.18;;
16177;SDS011;8195;51.220;9.746;2023-01-08T00:34:41;5.38;;;4.88;;
16177;SDS011;8195;51.220;9.746;2023-01-08T00:44:41;5.47;;;4.90;;
16177;SDS011;8195;51.220;9.746;2023-01-08T00:54:42;5.80;;;5.30;;
16177;SDS011;8195;51.220;9.746;2023-01-08T01:04:42;6.22;;;5.63;;
16177;SDS011;8195;51.220;9.746;2023-01-08T01:14:43;6.07;;;5.57;;
16177;SDS011;8195;51.220;9.746;2023-01-08T01:24:44;5.70;;;5.17;;
16177;SDS011;8195;51.220;9.746;2023-01-08T01:34:44;5.95;;;5.45;;
16177;SDS011;8195;51.220;9.746;2023-01-08T01:44:45;5.78;;;5.15;;
16177;SDS011;8195;51.220;9.746;2023-01-08T01:54:46;5.73;;;5.13;;
16177;SDS011;8195;51.220;9.746;2023-01-08T02:04:47;6.13;;;5.57;;
16177;SDS011;8195;51.220;9.746;2023-01-08T02:35:18;5.77;;;5.27;;
16177;SDS011;8195;51.220;9.746;2023-01-08T02:55:42;6.60;;;5.87;;
16177;SDS011;8195;51.220;9.746;2023-01-08T03:05:49;6.33;;;5.73;;
16177;SDS011;8195;51.220;9.746;2023-01-08T03:15:55;6.07;;;5.43;;
16177;SDS011;8195;51.220;9.746;2023-01-08T03:26:00;7.07;;;6.27;;
16177;SDS011;8195;51.220;9.746;2023-01-08T03:36:02;6.67;;;6.07;;
16177;SDS011;8195;51.220;9.746;2023-01-08T03:46:06;6.70;;;6.10;;
16177;SDS011;8195;51.220;9.746;2023-01-08T03:56:11;6.73;;;6.13;;
16177;SDS011;8195;51.220;9.746;2023-01-08T04:06:11;7.17;;;6.57;;
16177;SDS011;8195;51.220;9.746;2023-01-08T04:16:12;7.65;;;6.85;;
16177;SDS011;8195;51.220;9.746;2023-01-08T04:26:14;8.23;;;7.43;;
16177;SDS011;8195;51.220;9.746;2023-01-08T04:36:15;9.57;;;7.70;;
16177;SDS011;8195;51.220;9.746;2023-01-08T04:46:15;8.15;;;7.45;;
16177;SDS011;8195;51.220;9.746;2023-01-08T04:56:16;10.05;;;9.05;;
16177;SDS011;8195;51.220;9.746;2023-01-08T05:06:16;13.40;;;12.30;;
16177;SDS011;8195;51.220;9.746;2023-01-08T05:16:17;10.20;;;9.27;;
16177;SDS011;8195;51.220;9.746;2023-01-08T05:26:18;11.07;;;9.77;;
16177;SDS011;8195;51.220;9.746;2023-01-08T05:36:18;9.38;;;8.48;;
16177;SDS011;8195;51.220;9.746;2023-01-08T05:46:19;10.25;;;9.25;;
16177;SDS011;8195;51.220;9.746;2023-01-08T05:56:20;10.70;;;9.57;;
16177;SDS011;8195;51.220;9.746;2023-01-08T06:06:20;9.90;;;9.00;;
16177;SDS011;8195;51.220;9.746;2023-01-08T06:16:21;9.60;;;8.73;;
16177;SDS011;8195;51.220;9.746;2023-01-08T06:26:21;8.07;;;7.38;;
16177;SDS011;8195;51.220;9.746;2023-01-08T06:36:22;7.93;;;7.00;;
16177;SDS011;8195;51.220;9.746;2023-01-08T06:46:22;7.05;;;6.45;;
16177;SDS011;8195;51.220;9.746;2023-01-08T06:56:23;7.72;;;7.03;;
16177;SDS011;8195;51.220;9.746;2023-01-08T07:06:24;6.47;;;5.78;;
16177;SDS011;8195;51.220;9.746;2023-01-08T07:16:24;3.63;;;3.33;;
16177;SDS011;8195;51.220;9.746;2023-01-08T07:26:25;3.35;;;3.05;;
16177;SDS011;8195;51.220;9.746;2023-01-08T07:36:26;2.80;;;2.60;;
16177;SDS011;8195;51.220;9.746;2023-01-08T07:46:27;3.65;;;2.47;;
16177;SDS011;8195;51.220;9.746;2023-01-08T07:56:27;2.40;;;2.20;;
16177;SDS011;8195;51.220;9.746;2023-01-08T08:06:28;3.90;;;3.47;;
16177;SDS011;8195;51.220;9.746;2023-01-08T08:16:29;4.22;;;3.88;;
16177;SDS011;8195;51.220;9.746;2023-01-08T08:26:29;4.90;;;4.40;;
16177;SDS011;8195;51.220;9.746;2023-01-08T08:36:30;5.45;;;5.05;;
16177;SDS011;8195;51.220;9.746;2023-01-08T08:46:30;5.32;;;4.82;;
16177;SDS011;8195;51.220;9.746;2023-01-08T08:56:31;4.90;;;4.50;;
16177;SDS011;8195;51.220;9.746;2023-01-08T09:06:31;4.10;;;3.80;;
16177;SDS011;8195;51.220;9.746;2023-01-08T09:16:32;4.63;;;4.32;;
16177;SDS011;8195;51.220;9.746;2023-01-08T09:26:33;4.03;;;3.72;;
16177;SDS011;8195;51.220;9.746;2023-01-08T09:36:33;4.20;;;3.90;;
16177;SDS011;8195;51.220;9.746;2023-01-08T09:46:35;4.65;;;4.25;;
16177;SDS011;8195;51.220;9.746;2023-01-08T09:56:37;4.27;;;3.90;;
16177;SDS011;8195;51.220;9.746;2023-01-08T10:06:38;5.20;;;4.70;;
16177;SDS011;8195;51.220;9.746;2023-01-08T10:16:39;4.70;;;4.40;;
16177;SDS011;8195;51.220;9.746;2023-01-08T10:26:42;4.87;;;4.47;;
16177;SDS011;8195;51.220;9.746;2023-01-08T10:36:43;4.75;;;4.35;;
16177;SDS011;8195;51.220;9.746;2023-01-08T10:46:44;3.67;;;3.37;;
16177;SDS011;8195;51.220;9.746;2023-01-08T10:56:49;3.63;;;3.33;;
16177;SDS011;8195;51.220;9.746;2023-01-08T11:06:50;3.60;;;3.30;;
16177;SDS011;8195;51.220;9.746;2023-01-08T11:16:51;3.13;;;2.93;;
16177;SDS011;8195;51.220;9.746;2023-01-08T11:26:53;3.30;;;3.10;;
16177;SDS011;8195;51.220;9.746;2023-01-08T11:37:02;3.43;;;2.87;;
16177;SDS011;8195;51.220;9.746;2023-01-08T11:47:13;2.90;;;2.70;;
16177;SDS011;8195;51.220;9.746;2023-01-08T12:39:27;3.20;;;2.90;;
16177;SDS011;8195;51.220;9.746;2023-01-08T12:49:36;2.30;;;2.20;;
16177;SDS011;8195;51.220;9.746;2023-01-08T13:00:26;1.80;;;1.70;;
16177;SDS011;8195;51.220;9.746;2023-01-08T13:10:33;1.90;;;1.80;;
16177;SDS011;8195;51.220;9.746;2023-01-08T13:20:35;1.53;;;1.43;;
16177;SDS011;8195;51.220;9.746;2023-01-08T13:30:40;1.53;;;1.33;;
16177;SDS011;8195;51.220;9.746;2023-01-08T13:50:45;1.80;;;1.60;;
16177;SDS011;8195;51.220;9.746;2023-01-08T14:00:46;1.67;;;1.57;;
16177;SDS011;8195;51.220;9.746;2023-01-08T14:10:51;1.63;;;1.53;;
16177;SDS011;8195;51.220;9.746;2023-01-08T14:20:53;1.80;;;1.70;;
16177;SDS011;8195;51.220;9.746;2023-01-08T14:30:55;2.87;;;2.67;;
16177;SDS011;8195;51.220;9.746;2023-01-08T14:40:58;5.93;;;5.63;;
16177;SDS011;8195;51.220;9.746;2023-01-08T14:51:05;2.20;;;2.10;;
16177;SDS011;8195;51.220;9.746;2023-01-08T15:01:19;1.90;;;1.80;;
16177;SDS011;8195;51.220;9.746;2023-01-08T15:11:29;2.07;;;1.97;;
16177;SDS011;8195;51.220;9.746;2023-01-08T15:21:30;2.00;;;1.90;;
16177;SDS011;8195;51.220;9.746;2023-01-08T15:31:43;2.17;;;2.07;;
16177;SDS011;8195;51.220;9.746;2023-01-08T15:41:46;2.20;;;2.00;;
16177;SDS011;8195;51.220;9.746;2023-01-08T15:51:47;3.05;;;2.72;;
16177;SDS011;8195;51.220;9.746;2023-01-08T16:01:49;2.50;;;2.30;;
16177;SDS011;8195;51.220;9.746;2023-01-08T16:11:50;2.50;;;2.30;;
16177;SDS011;8195;51.220;9.746;2023-01-08T16:32:01;2.90;;;2.70;;
16177;SDS011;8195;51.220;9.746;2023-01-08T16:42:02;2.70;;;2.50;;
16177;SDS011;8195;51.220;9.746;2023-01-08T16:52:02;2.90;;;2.70;;
16177;SDS011;8195;51.220;9.746;2023-01-08T17:02:03;2.93;;;2.73;;
16177;SDS011;8195;51.220;9.746;2023-01-08T17:12:04;2.63;;;2.43;;
16177;SDS011;8195;51.220;9.746;2023-01-08T17:22:05;3.10;;;2.80;;
16177;SDS011;8195;51.220;9.746;2023-01-08T17:32:05;3.42;;;3.13;;
16177;SDS011;8195;51.220;9.746;2023-01-08T17:42:06;3.08;;;2.78;;
16177;SDS011;8195;51.220;9.746;2023-01-08T17:52:10;2.90;;;2.70;;
16177;SDS011;8195;51.220;9.746;2023-01-08T18:02:11;5.70;;;4.43;;
16177;SDS011;8195;51.220;9.746;2023-01-08T18:12:12;3.97;;;3.67;;
16177;SDS011;8195;51.220;9.746;2023-01-08T18:22:14;3.30;;;3.10;;
16177;SDS011;8195;51.220;9.746;2023-01-08T18:32:15;3.40;;;3.20;;
16177;SDS011;8195;51.220;9.746;2023-01-08T18:42:15;3.40;;;3.10;;
16177;SDS011;8195;51.220;9.746;2023-01-08T18:52:16;3.60;;;2.80;;
16177;SDS011;8195;51.220;9.746;2023-01-08T19:02:19;3.73;;;2.63;;
16177;SDS011;8195;51.220;9.746;2023-01-08T19:12:23;4.47;;;3.23;;
16177;SDS011;8195;51.220;9.746;2023-01-08T19:22:24;3.03;;;2.83;;
16177;SDS011;8195;51.220;9.746;2023-01-08T19:32:25;2.93;;;2.73;;
16177;SDS011;8195;51.220;9.746;2023-01-08T19:42:26;2.90;;;2.70;;
16177;SDS011;8195;51.220;9.746;2023-01-08T19:52:27;3.17;;;2.87;;
16177;SDS011;8195;51.220;9.746;2023-01-08T20:02:28;3.00;;;2.80;;
16177;SDS011;8195;51.220;9.746;2023-01-08T20:12:28;3.40;;;3.20;;
16177;SDS011;8195;51.220;9.746;2023-01-08T20:22:29;3.90;;;3.60;;
16177;SDS011;8195;51.220;9.746;2023-01-08T20:32:29;3.97;;;3.47;;
16177;SDS011;8195;51.220;9.746;2023-01-08T20:42:30;4.63;;;3.83;;
16177;SDS011;8195;51.220;9.746;2023-01-08T20:52:31;5.10;;;3.67;;
16177;SDS011;8195;51.220;9.746;2023-01-08T21:02:31;3.92;;;3.63;;
16177;SDS011;8195;51.220;9.746;2023-01-08T21:12:32;4.18;;;3.08;;
16177;SDS011;8195;51.220;9.746;2023-01-08T21:22:33;3.33;;;2.97;;
16177;SDS011;8195;51.220;9.746;2023-01-08T21:32:34;3.03;;;2.83;;
16177;SDS011;8195;51.220;9.746;2023-01-08T21:42:38;3.00;;;2.70;;
16177;SDS011;8195;51.220;9.746;2023-01-08T21:52:39;4.00;;;2.63;;
16177;SDS011;8195;51.220;9.746;2023-01-08T22:02:39;2.10;;;2.00;;
16177;SDS011;8195;51.220;9.746;2023-01-08T22:12:40;2.70;;;2.37;;
16177;SDS011;8195;51.220;9.746;2023-01-08T22:22:41;2.13;;;1.90;;
16177;SDS011;8195;51.220;9.746;2023-01-08T22:32:41;2.40;;;2.20;;
16177;SDS011;8195;51.220;9.746;2023-01-08T22:42:42;2.47;;;2.27;;
16177;SDS011;8195;51.220;9.746;2023-01-08T22:52:43;2.65;;;2.47;;
16177;SDS011;8195;51.220;9.746;2023-01-08T23:02:43;5.50;;;2.40;;
16177;SDS011;8195;51.220;9.746;2023-01-08T23:12:44;3.03;;;2.22;;
16177;SDS011;8195;51.220;9.746;2023-01-08T23:22:45;2.55;;;2.35;;
16177;SDS011;8195;51.220;9.746;2023-01-08T23:32:46;2.80;;;2.20;;
16177;SDS011;8195;51.220;9.746;2023-01-08T23:42:46;2.33;;;2.13;;
16177;SDS011;8195;51.220;9.746;2023-01-08T23:52:47;2.28;;;2.13;;
